Airfield :
LOGIN :

Register | Disclaimer

   EN    FR    IT 

 










Legend :    VFR   Marginal VFR   IFR   Intensive IFR   Very Intensive IFR
Visi :
Ceiling :
>= 8 km
>= 3000ft
5 to 8 km
1000 to 3000 ft
1500m to 5 km
500 to 1000 ft
800 to 1500m
200 to 500 ft
< 800m
< 200 ft
Symbols :   Thunderstorms  Fog  Heavy snow  Heavy precipitations  Wind > 20 kt
SIGMETs :     Misc.  Thunderstorms  Icing  Turbulence  Mountain Waves  Volcanic Ashes







- Airport Elevation : 203 ft
- IATA code : XMJ
- Download approach charts


LFBM - Mont-De-Marsan

CURRENT METAR :
  • 241930Z AUTO 28007KT 9999 FEW021 SCT036 15/12 Q1019

EXPIRED METARs :
  • 241900Z AUTO 29010KT 9999 SCT022 BKN100 BKN140 16/12 Q1019
  • 241830Z AUTO 28012KT 9999 SCT022 SCT098 BKN130 17/12 Q1018
  • 241800Z AUTO 29011KT 9999 BKN025 17/13 Q1018
  • 241730Z AUTO 28012KT 9999 FEW028/// BKN090/// OVC110/// ///TCU 18/13 Q1018
  • 241700Z AUTO 28014KT 9999 SCT029/// BKN034/// BKN041/// ///TCU 18/13 Q1018 TEMPO 4500 SHRA BECMG BKN035

TAF TAF LFBM
Valid from the 24 at 15:00 until the 25 at 15:00 UTC


241400Z 2415/2515 23005KT 9999 BKN035
TEMPO 2415/2418 4500 SHRA SCT010 BKN030TCU
BECMG 2500/2503 BKN007
BECMG 2511/2513 4500 SHRA SCT020TCU BKN040
No reported NOTAMs for that airfield.
1 SIGMET reported for the Bordeaux FIR (LFBB) :
 
Embedded thunderstorms
LFBB SIGMET 2 VALID 241800/242000 LFPW
LFBB BORDEAUX FIR/UIR EMBD TS FCST WI N4615 E00215 - N4400 E00200 - N4430 E00045 - N4630 E00145 - N4615 E00215 TOP FL340 MOV S 10KT NC=



MET'MAP, your aeronautical weather chart ! - Copyright ORBIFLY December 2007 - Disclaimer

ORBIFLY MET'MAP TEAM :

Programming & Development : Alexandra Zaïnal
Concept & Development : Baudouin d'Aumeries
Co-Development & Prog : Marc-Olivier Méhu
Technical & hardware support : Manuel Goepfert

Contact : metmap@orbifly.com




SOURCES & CREDITS :

   NOAA